Denver, CO (80212)

9:35 PM MDT on July 23, 2016 (GMT -0600)
38th and Sheridan | | Change Station

Elev 5449 ft 39.77 °N, 105.05 °W | Updated 25 seconds ago

Mostly Cloudy
Mostly Cloudy
74.7 °F
Feels Like 77 °F
N
0.0
Wind Variable Wind from East
Gusts 0.0 mph

Today
High -- | Low -- °F
--% Chance of Precip.
Yesterday
High -- | Low -- °F
Precip. -- in
Pressure 29.93 in
Visibility 10.0 miles
Clouds Scattered Clouds 9500 ft
Mostly Cloudy 12000 ft
Mostly Cloudy 20000 ft
Heat Index 77 °F
Dew Point 51 °F
Humidity 43%
Rainfall 0.05 in
Snow Depth Not available.
5:51 AM 8:21 PM
Waning Gibbous, 80% visible
METAR KAPA 240253Z 12008KT 10SM SCT095 BKN120 BKN200 25/07 A3018 RMK AO2 SLP133 VIRGA DSNT W-N T02500072 50026
Pressure 29.93 in
Visibility 10.0 miles
Clouds Scattered Clouds 9500 ft
Mostly Cloudy 12000 ft
Mostly Cloudy 20000 ft
Heat Index 77 °F
Dew Point 51 °F
Humidity 43%
Rainfall 0.05 in
Snow Depth Not available.
5:51 AM 8:21 PM
Waning Gibbous, 80% visible
METAR KAPA 240253Z 12008KT 10SM SCT095 BKN120 BKN200 25/07 A3018 RMK AO2 SLP133 VIRGA DSNT W-N T02500072 50026

10-Day Weather Forecast

Almanac

Astronomy

Jul. 23, 2016 Rise Set
Actual Time
Civil Twilight
Nautical Twilight
Astronomical Twilight
Moon
Length of Visible Light
Length of Day
Tomorrow will be .
, % of the Moon is Illuminated

Today's Extremes

State Highs State Lows

Community

WunderPhotos

Upload Photos

1,927,017 photos uploaded!

WunderBlog® & News

Nearby

Air Quality

  Air Quality AQ Index Pollutant
Not available.

Snow Depth

Station Depth Elevation

Earthquake Activity

City Distance Mag. Time & Date
Minimum magnitude displayed is 2.5.

Coastal Water Temperatures

Place Temperature

Stations

Nearby Weather Stations

Station Location Temp. Windchill Dew Point Humidity Wind Precip. Elev Updated Type
                   

Watches & Warnings

There are currently no watches in effect.